Weather observations for the past three days for
Brookneal/Campbell County Airport
Metric (Imperial)
Date Time (edt) Wind (kph) Vis. (km) Weather Sky Cond. Temperature (ºC) Relative Humidity Wind Chill (°C) Heat Index (°C) Pressure Precipitation (cm)
Air Dwpt 6 hour altimeter (cm) sea level (mb) 1 hr 3 hr 6 hr
Max. Min.
31 17:15 S 19 G 30 16.09 Mostly Cloudy BKN070 BKN110 32 20 49% 34 76.35 0.0
31 16:55 SE 17 G 30 16.09 Partly Cloudy SCT070 SCT110 33 20 46% 35 76.35 0.0
31 16:35 E 11 16.09 Partly Cloudy SCT090 SCT120 34 18 39% 35 76.35 0.0
31 16:15 NE 9 16.09 Mostly Cloudy SCT100 BKN120 34 18 39% 35 76.35 0.0
31 15:55 W 6 16.09 Partly Cloudy SCT070 SCT100 SCT120 35 18 36% 36 76.38 0.0
31 15:35 NE 11 16.09 Partly Cloudy SCT070 35 18 36% 36 76.38 0.0
31 15:15 S 9 16.09 Fair CLR 35 18 36% 36 76.38 0.0
31 14:55 SW 11 16.09 Partly Cloudy SCT075 SCT085 SCT120 36 18 34% 37 76.4 0.0
31 14:35 W 7 16.09 Partly Cloudy SCT060 36 18 34% 37 76.4 0.0
31 14:15 S 9 16.09 Partly Cloudy SCT060 SCT085 SCT110 35 19 39% 37 76.43 0.0
31 13:55 NW 9 16.09 Mostly Cloudy SCT060 SCT085 BKN110 35 19 39% 37 76.45 0.0
31 13:35 NE 11 16.09 Mostly Cloudy SCT060 SCT075 BKN110 35 20 41% 38 76.45 0.0
31 13:15 NE 9 16.09 Mostly Cloudy BKN050 BKN075 BKN110 33 19 44% 35 76.48 0.0
31 12:55 NE 17 16.09 Mostly Cloudy SCT050 BKN110 34 20 44% 36 76.48 0.0
31 12:35 E 7 G 30 16.09 Partly Cloudy SCT050 SCT110 33 19 44% 35 76.5 0.0
31 12:15 S 11 16.09 Partly Cloudy SCT045 33 20 46% 35 76.5 0.0
31 11:55 N 9 16.09 Partly Cloudy SCT045 33 21 49% 36 76.5 0.0
31 11:35 E 11 16.09 Fair CLR 32 20 49% 34 76.53 0.0
31 11:15 S 9 16.09 Fair CLR 32 21 52% 35 76.53 0.0
31 10:55 S 9 16.09 Fair CLR 31 21 55% 34 76.53 0.0
31 10:35 SE 7 16.09 Fair CLR 30 21 59% 33 76.53 0.0
31 10:15 NW 7 16.09 Fair CLR 29 21 62% 31 76.53 0.0
31 09:55 SE 7 16.09 Fair CLR 28 21 66% 30 76.53 0.0
31 09:35 S 11 16.09 Fair CLR 27 21 70% 29 76.56 0.0
31 09:15 S 9 16.09 Fair CLR 26 21 74% 27 76.56 0.0
31 08:55 S 11 16.09 Fair CLR 25 21 79% 26 76.56 0.0
31 08:35 S 13 16.09 Fair CLR 23 21 89% 76.56 0.0
31 08:15 S 11 16.09 Fair CLR 22 21 94% 76.56 0.0
31 07:55 S 6 16.09 Fair CLR 21 21 100% 76.53 0.0
31 07:35 S 9 16.09 Fair CLR 21 20 94% 76.53 0.0
31 07:15 S 11 16.09 Fair CLR 20 20 100% 76.53 0.0
31 06:55 S 13 11.27 Partly Cloudy SCT075 19 19 100% 76.5 0.0
31 06:35 S 9 11.27 Partly Cloudy SCT075 19 19 100% 76.5 0.0
31 06:15 SE 15 11.27 Partly Cloudy SCT080 20 20 100% 76.48 0.0
31 05:55 S 13 16.09 Partly Cloudy SCT080 20 19 94% 76.48 0.0
31 05:35 SE 11 16.09 Fair CLR 20 20 100% 76.48 0.0
31 05:15 SE 15 16.09 Fair CLR 21 20 94% 76.48 0.0
31 04:55 S 11 16.09 Fair CLR 21 20 94% 76.48 0.0
31 04:35 S 9 16.09 Fair CLR 20 20 100% 76.48 0.0
31 04:15 S 9 16.09 Fair CLR 20 20 100% 76.48 0.0
31 03:55 S 9 16.09 Fair CLR 20 19 94% 76.48 0.0
31 03:35 S 9 16.09 Fair CLR 20 20 100% 76.48 0.0
31 03:15 S 9 16.09 Fair CLR 20 19 94% 76.48 0.0
31 02:55 S 11 16.09 Fair CLR 21 20 94% 76.48 0.0
31 02:35 S 9 16.09 Fair CLR 20 19 94% 76.5 0.0
31 02:15 S 9 16.09 Fair CLR 20 19 94% 76.5 0.0
31 01:55 S 9 16.09 Fair CLR 20 19 94% 76.5 0.0
31 01:35 S 15 16.09 Fair CLR 21 20 94% 76.5 0.0
31 01:15 S 15 16.09 Fair CLR 21 20 94% 76.53 0.0
31 00:55 S 13 16.09 Fair CLR 22 20 88% 76.53 0.0
31 00:35 S 13 16.09 Fair CLR 22 20 88% 76.53 0.0
31 00:15 S 13 16.09 Fair CLR 22 20 88% 76.53 0.0
30 23:55 S 13 16.09 Fair CLR 23 20 83% 76.53 0.0
30 23:35 S 13 16.09 Fair CLR 22 20 88% 76.53 0.0
30 23:15 S 17 16.09 Fair CLR 24 21 83% 24 76.53 0.0
30 22:55 S 17 16.09 Fair CLR 25 21 79% 26 76.56 0.0
30 22:35 S 15 16.09 Fair CLR 25 20 74% 26 76.56 0.0
30 22:15 S 15 16.09 Fair CLR 25 20 74% 26 76.56 0.0
30 21:55 S 19 16.09 Fair CLR 26 20 70% 27 76.53 0.0
30 21:35 S 19 16.09 Fair CLR 26 20 70% 27 76.53 0.0
30 21:15 S 19 16.09 Fair CLR 26 20 70% 27 76.53 0.0
30 20:55 S 15 16.09 Fair CLR 26 18 61% 27 76.5 0.0
30 20:35 S 17 16.09 Fair CLR 27 18 58% 28 76.48 0.0
30 20:15 S 19 16.09 Fair CLR 26 18 61% 27 76.45 0.0
30 19:55 S 17 16.09 Fair CLR 28 18 55% 29 76.45 0.0
30 19:35 S 17 16.09 Fair CLR 29 18 51% 30 76.45 0.0
30 19:15 S 17 16.09 Fair CLR 30 18 49% 31 76.45 0.0
30 18:55 S 17 16.09 Fair CLR 31 18 46% 32 76.45 0.0
30 18:35 SE 15 16.09 Fair CLR 32 18 43% 33 76.48 0.0
30 18:15 S 19 16.09 Fair CLR 31 18 46% 32 76.45 0.0
30 17:55 S 19 16.09 Partly Cloudy SCT065 SCT075 SCT085 32 18 43% 33 76.45 0.0
30 17:35 S 19 16.09 Partly Cloudy SCT075 SCT080 33 18 41% 34 76.45 0.0
30 17:15 S 17 16.09 Fair CLR 32 18 43% 33 76.45 0.0
30 16:55 S 22 16.09 Fair CLR 32 18 43% 33 76.45 0.0
30 16:35 S 20 16.09 Fair CLR 33 18 41% 34 76.45 0.0
30 16:15 SE 9 16.09 Fair CLR 33 18 41% 34 76.48 0.0
30 15:55 SE 15 16.09 Fair CLR 33 18 41% 34 76.5 0.0
30 15:35 E 7 16.09 Fair CLR 32 18 43% 33 76.5 0.0
30 15:15 S 20 G 28 16.09 Fair CLR 32 19 46% 33 76.53 0.0
30 14:55 SW 7 16.09 Partly Cloudy SCT045 32 19 46% 33 76.58 0.0
30 14:35 SE 6 16.09 Partly Cloudy SCT043 32 20 49% 34 76.61 0.0
30 14:15 S 19 G 26 16.09 Partly Cloudy SCT042 31 20 52% 33 76.63 0.0
30 13:55 S 24 G 31 16.09 Partly Cloudy SCT038 31 20 52% 33 76.66 0.0
30 13:35 S 15 16.09 Partly Cloudy SCT038 30 20 55% 32 76.68 0.0
30 13:15 S 11 16.09 Fair CLR 30 20 55% 32 76.71 0.0
30 12:55 SW 6 16.09 Partly Cloudy SCT026 30 20 55% 32 76.73 0.0
30 12:35 E 13 16.09 Mostly Cloudy BKN026 27 20 66% 29 76.73 0.0
30 12:15 S 15 16.09 Mostly Cloudy BKN024 28 20 62% 30 76.76 0.0
30 11:55 S 7 16.09 Mostly Cloudy BKN020 27 20 66% 29 76.76 0.0
30 11:35 SE 15 16.09 Overcast OVC020 27 21 70% 29 76.78 0.0
30 11:15 S 15 16.09 Overcast OVC018 25 21 79% 26 76.78 0.0
30 10:55 S 13 16.09 Overcast OVC014 25 20 74% 26 76.78 0.0
30 10:35 S 15 16.09 Overcast OVC014 25 21 79% 26 76.81 0.0
30 10:15 S 19 16.09 Overcast OVC014 24 21 83% 24 76.78 0.0
30 09:55 S 19 16.09 Overcast SCT010 OVC015 23 21 89% 76.81 0.0
30 09:35 SE 7 16.09 Overcast OVC015 23 22 94% 76.84 0.0
30 09:15 SE 13 16.09 Overcast OVC015 22 22 100% 76.84 0.0
30 08:55 Calm 11.27 Overcast OVC015 21 21 100% 76.84 0.0
30 08:35 Calm 8.05 Overcast OVC015 21 21 100% 76.84 0.0
30 08:15 Calm 4.83 Overcast SCT002 OVC015 20 20 100% 76.84 0.0
30 07:55 E 6 2.82 Overcast OVC013 20 20 100% 76.81 0.0
30 07:35 Calm 0.40 Overcast BKN001 OVC013 19 19 100% 76.81 0.0
30 07:15 E 9 0.24 Overcast OVC001 18 18 100% 76.78 0.0
30 06:55 E 9 0.24 Overcast OVC001 18 18 100% 76.76 0.0
30 06:35 E 11 0.24 Overcast OVC001 19 19 100% 76.73 0.0
30 06:15 Calm 2.41 Overcast BKN001 OVC017 18 18 100% 76.73 0.0
30 05:55 Calm 4.02 Overcast BKN001 BKN005 OVC015 18 18 100% 76.73 0.0
30 05:35 Calm 6.44 Mostly Cloudy SCT005 BKN015 18 18 100% 76.73 0.0
30 05:15 E 13 2.82 Overcast SCT002 OVC015 18 18 100% 76.73 0.0
30 04:55 E 9 1.21 Overcast BKN002 OVC015 18 18 100% 76.73 0.0
30 04:35 E 13 0.40 Overcast OVC002 18 18 100% 76.73 0.0
30 04:15 E 11 0.80 Overcast OVC002 18 18 100% 76.73 0.0
30 03:55 Calm 11.27 Partly Cloudy SCT002 18 18 100% 76.73 0.0
30 03:35 E 7 8.05 Fair CLR 18 18 100% 76.73 0.0
30 03:15 E 9 8.05 Partly Cloudy SCT017 19 19 100% 76.73 0.0
30 02:55 SE 7 6.44 Partly Cloudy SCT017 19 19 100% 76.76 0.0
30 02:35 E 9 6.44 Fair CLR 20 20 100% 76.76 0.0
30 02:15 SE 9 4.83 Fair CLR 20 20 100% 76.76 0.0
30 01:55 E 11 11.27 Fair CLR 20 20 100% 76.76 0.0
30 01:35 E 11 16.09 Fair CLR 20 20 100% 76.78 0.0
30 01:15 Calm 16.09 Partly Cloudy SCT033 20 20 100% 76.78 0.0
30 00:55 E 6 16.09 Mostly Cloudy SCT028 BKN033 20 20 100% 76.78 0.0
30 00:35 E 6 16.09 Mostly Cloudy BKN025 BKN030 21 20 94% 76.78 0.0
30 00:15 Calm 16.09 Fair CLR 21 20 94% 76.78 0.0
29 23:55 E 9 16.09 Partly Cloudy SCT027 21 20 94% 76.78 0.0
29 23:35 SE 13 16.09 Fair CLR 22 20 88% 76.76 0.0
29 23:15 SE 9 16.09 Fair CLR 21 20 94% 76.76 0.0
29 22:55 Calm 16.09 Fair CLR 22 20 88% 76.73 0.0
29 22:35 Calm 16.09 Partly Cloudy SCT050 22 20 88% 76.73 0.0
29 22:15 Calm 16.09 Partly Cloudy SCT050 23 20 83% 76.73 0.0
29 21:55 Calm 16.09 Mostly Cloudy SCT050 BKN055 24 20 78% 24 76.71 0.0
29 21:35 Calm 16.09 Partly Cloudy SCT050 25 20 74% 26 76.71 0.0
29 21:15 E 6 16.09 Partly Cloudy SCT049 SCT060 25 20 74% 26 76.68 0.0
29 20:55 SE 9 16.09 Mostly Cloudy SCT037 SCT043 BKN055 26 20 70% 27 76.66 0.0
29 20:35 Calm 16.09 Mostly Cloudy BKN039 BKN048 26 20 70% 27 76.66 0.0
29 20:15 SE 6 16.09 Mostly Cloudy BKN041 BKN048 26 20 70% 27 76.63 0.0
29 19:35 E 17 16.09 Fair CLR 27 20 66% 29 76.61 0.0
29 19:15 E 15 16.09 Fair CLR 28 20 62% 30 76.61 0.0
29 18:55 E 15 16.09 Partly Cloudy SCT050 SCT100 28 20 62% 30 76.61 0.0
29 18:35 E 13 16.09 Mostly Cloudy SCT045 BKN050 BKN090 29 19 55% 30 76.61 0.0
29 18:15 E 17 G 26 16.09 Partly Cloudy SCT047 30 19 52% 31 76.61 0.0
29 17:55 E 17 G 26 16.09 Fair CLR 30 19 52% 31 76.61 0.0
29 17:35 E 15 16.09 Fair CLR 31 20 52% 33 76.61 0.0
29 17:15 E 26 G 31 16.09 Partly Cloudy SCT047 SCT085 31 19 49% 32 76.61 0.0
29 16:55 E 17 16.09 Mostly Cloudy BKN049 BKN085 30 19 52% 31 76.63 0.0
29 16:35 NE 22 G 31 16.09 Mostly Cloudy BKN047 BKN060 30 19 52% 31 76.63 0.0
29 16:15 SE 11 G 28 16.09 Partly Cloudy SCT045 SCT050 SCT110 31 19 49% 32 76.66 0.0
29 15:55 E 13 16.09 Partly Cloudy SCT090 SCT110 31 19 49% 32 76.66 0.0
29 15:35 E 13 G 30 16.09 Partly Cloudy SCT042 SCT047 SCT090 31 19 49% 32 76.68 0.0
29 15:15 E 9 G 28 16.09 Fair CLR 31 19 49% 32 76.68 0.0
29 14:55 E 15 16.09 Partly Cloudy SCT046 SCT060 SCT080 30 20 55% 32 76.73 0.0
29 14:35 E 19 G 26 16.09 Overcast SCT043 BKN060 OVC075 28 19 58% 29 76.76 0.0
29 14:15 E 6 G 28 16.09 Mostly Cloudy SCT041 BKN047 BKN060 29 19 55% 30 76.76 0.0
29 13:55 E 19 16.09 Partly Cloudy SCT039 SCT045 30 19 52% 31 76.78 0.0
29 13:35 E 17 G 33 16.09 Mostly Cloudy SCT037 BKN045 28 19 58% 29 76.78 0.0
29 12:15 E 15 16.09 Mostly Cloudy BKN030 27 20 66% 29 76.78 0.0
29 11:55 NE 22 G 28 16.09 Mostly Cloudy BKN028 27 20 66% 29 76.78 0.0
29 11:35 E 19 16.09 Partly Cloudy SCT028 27 20 66% 29 76.78 0.0
29 10:55 NE 20 16.09 Fair CLR 26 20 70% 27 76.76 0.0
29 10:35 E 15 16.09 Fair CLR 26 19 65% 27 76.73 0.0
29 10:15 E 20 G 31 16.09 Fair CLR 26 19 65% 27 76.73 0.0
29 09:55 NE 24 16.09 Fair CLR 26 19 65% 27 76.73 0.0
29 09:35 NE 24 G 31 16.09 Fair CLR 25 19 69% 26 76.73 0.0
29 09:15 E 20 16.09 Fair CLR 24 20 78% 24 76.76 0.0
29 08:55 E 22 16.09 Fair CLR 23 20 83% 76.73 0.0
29 08:35 E 20 16.09 Partly Cloudy SCT018 SCT065 22 20 88% 76.73 0.0
29 08:15 NE 19 16.09 Mostly Cloudy BKN065 22 21 94% 76.73 0.0
29 07:55 E 13 16.09 Mostly Cloudy BKN065 21 21 100% 76.73 0.0
29 07:35 E 15 16.09 Fair CLR 21 21 100% 76.71 0.0
29 07:15 E 15 11.27 Fair CLR 21 21 100% 76.68 0.0
29 06:55 E 17 8.05 Fair CLR 20 20 100% 76.66 0.0
29 06:35 NE 17 8.05 Partly Cloudy SCT021 20 20 100% 76.66 0.0
29 06:15 E 15 8.05 Partly Cloudy SCT021 SCT041 20 20 100% 76.63 0.0
29 05:55 E 17 8.05 Mostly Cloudy BKN041 20 20 100% 76.63 0.0
29 05:35 E 15 6.44 Mostly Cloudy BKN039 20 20 100% 76.63 0.0
29 05:15 E 9 6.44 Fair CLR 20 20 100% 76.61 0.0
29 04:55 E 11 8.05 Fair CLR 20 20 100% 76.58 0.0
29 04:35 E 15 16.09 Partly Cloudy SCT060 21 20 94% 76.58 0.0
29 04:15 E 13 16.09 Partly Cloudy SCT060 21 21 100% 76.58 0.0
29 03:55 E 9 16.09 Partly Cloudy SCT020 20 20 100% 76.58 0.0
29 03:35 SE 9 11.27 Partly Cloudy SCT020 19 19 100% 76.56 0.0
29 03:15 SE 7 16.09 Fair CLR 20 19 94% 76.53 0.0
29 02:55 SE 6 16.09 Fair CLR 20 18 88% 76.53 0.0
29 02:35 E 13 16.09 Fair CLR 20 20 100% 76.53 0.0
29 02:15 E 13 16.09 Fair CLR 20 20 100% 76.5 0.0
29 01:55 SE 6 16.09 Fair CLR 20 19 94% 76.5 0.0
29 01:35 Calm 16.09 Fair CLR 20 20 100% 76.5 0.0
29 01:15 E 7 16.09 Partly Cloudy SCT065 21 20 94% 76.5 0.0
29 00:55 E 11 16.09 Partly Cloudy SCT055 21 20 94% 76.5 0.0
29 00:35 E 11 16.09 Partly Cloudy SCT055 SCT065 21 20 94% 76.5 0.0
29 00:15 Calm 16.09 Mostly Cloudy BKN050 BKN065 21 20 94% 76.48 0.0
28 23:55 E 11 16.09 Partly Cloudy SCT050 SCT070 21 20 94% 76.48 0.0
28 23:35 E 11 16.09 Mostly Cloudy BKN070 21 20 94% 76.45 0.0
28 23:15 E 11 16.09 Overcast OVC060 21 20 94% 76.45 0.0
28 22:55 SE 6 16.09 Mostly Cloudy BKN060 21 20 94% 76.45 0.0
28 22:35 SE 7 16.09 Fair CLR 22 20 88% 76.43 0.0
28 22:15 E 9 16.09 Fair CLR 22 20 88% 76.43 0.0
28 21:55 E 6 16.09 Fair CLR 23 20 83% 76.43 0.0
28 21:35 Calm 16.09 Fair CLR 23 20 83% 76.4 0.0
28 21:15 E 15 16.09 Fair CLR 24 20 78% 24 76.4 0.0
28 20:35 E 13 16.09 Fair CLR 25 20 74% 26 76.33 0.0
28 20:15 E 11 16.09 Fair CLR 26 20 70% 27 76.33 0.0
28 19:55 E 15 16.09 Fair CLR 27 20 66% 29 76.3 0.0
28 19:35 E 7 16.09 Fair CLR 28 20 62% 30 76.3 0.0
28 19:15 E 15 16.09 Fair CLR 29 20 58% 31 76.28 0.0
28 18:55 E 15 16.09 Fair CLR 28 20 62% 30 76.28 0.0
28 18:35 E 19 16.09 Fair CLR 29 20 58% 31 76.28 0.0
28 18:15 E 13 16.09 Fair CLR 30 18 49% 31 76.28 0.0
28 17:55 NE 13 16.09 Fair CLR 30 18 49% 31 76.25 0.0
28 17:35 NE 15 16.09 Fair CLR 31 17 43% 31 76.25 0.0
Date Time (edt) Wind (kph) Vis. (km) Weather Sky Cond. Air Dwpt Max. Min. Relative Humidity Wind Chill (°C) Heat Index (°C) altimeter (cm) sea level (mb) 1 hr 3 hr 6 hr
6 hour
Temperature (ºC) Pressure Precipitation (cm)